createdAt,value
2018-10-03T00:03:10.098Z,1011.59
2018-10-03T00:08:05.762Z,1011.65
2018-10-03T00:13:01.847Z,1011.66
2018-10-03T00:17:58.420Z,1011.68
2018-10-03T00:22:54.079Z,1011.73
2018-10-03T00:27:50.362Z,1011.75
2018-10-03T00:32:45.873Z,1011.75
2018-10-03T00:37:41.965Z,1011.75
2018-10-03T00:42:37.623Z,1011.68
2018-10-03T00:47:33.446Z,1011.69
2018-10-03T00:52:29.636Z,1011.66
2018-10-03T00:57:25.668Z,1011.73
2018-10-03T01:02:21.150Z,1011.65
2018-10-03T01:07:17.170Z,1011.86
2018-10-03T01:12:12.980Z,1011.87
2018-10-03T01:17:08.871Z,1011.84
2018-10-03T01:22:05.093Z,1011.95
2018-10-03T01:27:01.997Z,1011.86
2018-10-03T01:31:57.403Z,1011.90
2018-10-03T01:36:53.548Z,1012.08
2018-10-03T01:41:49.421Z,1012.05
2018-10-03T01:46:45.175Z,1012.12
2018-10-03T01:51:42.112Z,1012.15
2018-10-03T01:56:37.637Z,1012.20
2018-10-03T02:01:33.304Z,1012.27
2018-10-03T02:06:30.205Z,1012.34
2018-10-03T02:11:26.986Z,1012.23
2018-10-03T02:16:22.611Z,1012.31
2018-10-03T02:21:18.459Z,1012.36
2018-10-03T02:26:15.947Z,1012.40
2018-10-03T02:31:11.415Z,1012.39
2018-10-03T02:36:07.347Z,1012.39
2018-10-03T02:41:04.295Z,1012.48
2018-10-03T02:45:59.926Z,1012.47
2018-10-03T02:50:55.327Z,1012.47
2018-10-03T02:55:52.070Z,1012.38
2018-10-03T03:00:48.971Z,1012.42
2018-10-03T03:05:44.335Z,1012.50
2018-10-03T03:10:40.130Z,1012.56
2018-10-03T03:15:36.530Z,1012.64
2018-10-03T03:20:32.294Z,1012.67
2018-10-03T03:25:28.134Z,1012.72
2018-10-03T03:30:25.187Z,1012.63
2018-10-03T03:35:20.805Z,1012.70
2018-10-03T03:40:17.775Z,1012.74
2018-10-03T03:45:14.778Z,1012.73
2018-10-03T03:50:10.147Z,1012.75
2018-10-03T03:55:05.895Z,1012.63
2018-10-03T04:00:01.670Z,1012.84
2018-10-03T04:04:58.444Z,1012.87
2018-10-03T04:09:54.078Z,1012.98
2018-10-03T04:14:50.883Z,1013.04
2018-10-03T04:19:46.561Z,1013.16
2018-10-03T04:24:43.268Z,1013.16
2018-10-03T04:29:39.712Z,1013.25
2018-10-03T04:34:36.172Z,1013.21
2018-10-03T04:39:32.572Z,1013.31
2018-10-03T04:44:28.862Z,1013.34
2018-10-03T04:49:25.167Z,1013.31
2018-10-03T04:54:20.883Z,1013.42
2018-10-03T04:59:16.670Z,1013.37
2018-10-03T05:04:12.574Z,1013.39
2018-10-03T05:09:08.409Z,1013.46
2018-10-03T05:14:04.137Z,1013.52
2018-10-03T05:18:59.980Z,1013.56
2018-10-03T05:23:55.619Z,1013.59
2018-10-03T05:28:51.523Z,1013.74
2018-10-03T05:33:47.397Z,1013.76
2018-10-03T05:38:43.245Z,1013.73
2018-10-03T05:43:38.880Z,1013.90
2018-10-03T05:48:34.631Z,1013.96
2018-10-03T05:53:30.955Z,1013.94
2018-10-03T05:58:27.841Z,1014.13
2018-10-03T06:03:24.111Z,1014.19
2018-10-03T06:08:20.407Z,1014.20
2018-10-03T06:13:16.500Z,1014.35
2018-10-03T06:18:12.410Z,1014.57
2018-10-03T06:23:08.526Z,1014.60
2018-10-03T06:28:04.479Z,1014.77
2018-10-03T06:33:01.051Z,1014.97
2018-10-03T06:37:56.877Z,1015.02
2018-10-03T06:42:52.844Z,1015.13
2018-10-03T06:47:48.960Z,1015.21
2018-10-03T06:52:44.946Z,1015.35
2018-10-03T06:57:41.441Z,1015.38
2018-10-03T07:02:37.555Z,1015.46
2018-10-03T07:07:34.587Z,1015.61
2018-10-03T07:12:31.575Z,1015.68
2018-10-03T07:17:27.089Z,1015.79
2018-10-03T07:22:24.513Z,1015.88
2018-10-03T07:27:20.209Z,1015.85
2018-10-03T07:32:16.061Z,1015.98
2018-10-03T07:37:12.480Z,1016.11
2018-10-03T07:42:09.505Z,1016.20
2018-10-03T07:47:05.293Z,1016.32
2018-10-03T07:52:01.292Z,1016.31
2018-10-03T07:56:57.604Z,1016.31
2018-10-03T08:01:53.478Z,1016.41
2018-10-03T08:06:51.238Z,1016.49
2018-10-03T08:11:47.835Z,1016.48
2018-10-03T08:16:43.732Z,1016.61
2018-10-03T08:21:40.039Z,1016.74
2018-10-03T08:26:36.682Z,1016.65
2018-10-03T08:31:33.184Z,1016.77
2018-10-03T08:36:30.018Z,1016.86
2018-10-03T08:41:26.742Z,1016.99
2018-10-03T08:46:22.017Z,1016.95
2018-10-03T08:51:18.717Z,1017.04
2018-10-03T08:56:14.389Z,1017.13
2018-10-03T09:01:10.281Z,1017.15
2018-10-03T09:06:06.213Z,1017.11
2018-10-03T09:11:02.144Z,1017.27
2018-10-03T09:15:59.131Z,1017.32
2018-10-03T09:20:54.709Z,1017.46
2018-10-03T09:25:51.620Z,1017.58
2018-10-03T09:30:48.650Z,1017.54
2018-10-03T09:35:45.066Z,1017.57
2018-10-03T09:40:40.633Z,1017.74
2018-10-03T09:45:36.599Z,1017.71
2018-10-03T09:50:32.605Z,1017.78
2018-10-03T09:55:29.063Z,1017.80
2018-10-03T10:00:25.132Z,1017.84
2018-10-03T10:05:21.052Z,1017.82
2018-10-03T10:10:16.889Z,1017.96
2018-10-03T10:15:12.886Z,1017.84
2018-10-03T10:20:08.755Z,1018.03
2018-10-03T10:25:05.771Z,1017.99
2018-10-03T10:30:02.474Z,1018.15
2018-10-03T10:34:58.222Z,1018.09
2018-10-03T10:39:54.093Z,1018.12
2018-10-03T10:44:49.962Z,1018.13
2018-10-03T10:49:46.140Z,1018.19
2018-10-03T10:54:43.135Z,1018.16
2018-10-03T10:59:40.938Z,1018.12
2018-10-03T11:04:36.842Z,1018.20
2018-10-03T11:09:32.972Z,1018.27
2018-10-03T11:14:30.325Z,1018.31
2018-10-03T11:19:26.890Z,1018.31
2018-10-03T11:24:23.631Z,1018.43
2018-10-03T11:29:19.588Z,1018.39
2018-10-03T11:34:16.214Z,1018.59
2018-10-03T11:39:11.642Z,1018.44
2018-10-03T11:44:07.456Z,1018.31
2018-10-03T11:49:03.446Z,1018.42
2018-10-03T11:53:59.434Z,1018.30
2018-10-03T11:58:55.170Z,1018.32
2018-10-03T12:03:50.730Z,1018.38
2018-10-03T12:08:46.004Z,1018.47
2018-10-03T12:13:42.010Z,1018.38
2018-10-03T12:18:38.119Z,1018.45
2018-10-03T12:23:33.910Z,1018.55
2018-10-03T12:28:30.010Z,1018.39
2018-10-03T12:33:25.647Z,1018.47
2018-10-03T12:38:21.949Z,1018.51
2018-10-03T12:43:19.432Z,1018.44
2018-10-03T12:48:14.898Z,1018.51
2018-10-03T12:53:11.342Z,1018.43
2018-10-03T12:58:07.065Z,1018.45
2018-10-03T13:03:03.484Z,1018.49
2018-10-03T13:08:00.911Z,1018.43
2018-10-03T13:12:56.644Z,1018.49
2018-10-03T13:17:52.303Z,1018.48
2018-10-03T13:22:48.017Z,1018.57
2018-10-03T13:27:44.435Z,1018.41
2018-10-03T13:32:41.538Z,1018.57
2018-10-03T13:37:38.175Z,1018.41
2018-10-03T13:42:33.834Z,1018.57
2018-10-03T13:47:30.754Z,1018.62
2018-10-03T13:52:27.144Z,1018.55
2018-10-03T13:57:23.141Z,1018.50
2018-10-03T14:02:18.429Z,1018.50
2018-10-03T14:07:14.501Z,1018.60
2018-10-03T14:12:10.727Z,1018.60
2018-10-03T14:17:06.725Z,1018.62
2018-10-03T14:22:03.349Z,1018.56
2018-10-03T14:26:59.041Z,1018.54
2018-10-03T14:31:54.815Z,1018.62
2018-10-03T14:36:50.443Z,1018.63
2018-10-03T14:41:47.330Z,1018.64
2018-10-03T14:46:43.637Z,1018.59
2018-10-03T14:51:39.288Z,1018.57
2018-10-03T14:56:35.207Z,1018.55
2018-10-03T15:01:31.058Z,1018.51
2018-10-03T15:06:27.789Z,1018.57
2018-10-03T15:11:24.017Z,1018.59
2018-10-03T15:16:19.833Z,1018.58
2018-10-03T15:21:16.502Z,1018.55
2018-10-03T15:26:13.187Z,1018.70
2018-10-03T15:31:08.582Z,1018.75
2018-10-03T15:36:04.190Z,1018.75
2018-10-03T15:41:01.271Z,1018.54
2018-10-03T15:45:56.544Z,1018.67
2018-10-03T15:50:53.429Z,1018.69
2018-10-03T15:55:49.947Z,1018.67
2018-10-03T16:00:46.436Z,1018.77
2018-10-03T16:05:41.665Z,1018.83
2018-10-03T16:10:39.130Z,1018.83
2018-10-03T16:15:34.617Z,1018.79
2018-10-03T16:20:30.430Z,1018.79
2018-10-03T16:25:26.297Z,1018.89
2018-10-03T16:30:23.121Z,1018.86
2018-10-03T16:35:18.775Z,1018.99
2018-10-03T16:40:15.673Z,1018.95
2018-10-03T16:45:11.124Z,1018.97
2018-10-03T16:50:08.305Z,1019.06
2018-10-03T16:55:04.785Z,1018.98
2018-10-03T17:00:00.137Z,1019.12
2018-10-03T17:04:56.095Z,1019.17
2018-10-03T17:09:51.879Z,1019.25
2018-10-03T17:14:47.599Z,1019.29
2018-10-03T17:19:43.378Z,1019.32
2018-10-03T17:24:40.350Z,1019.50
2018-10-03T17:29:36.009Z,1019.47
2018-10-03T17:34:31.727Z,1019.57
2018-10-03T17:39:27.647Z,1019.55
2018-10-03T17:44:24.534Z,1019.67
2018-10-03T17:49:20.139Z,1019.61
2018-10-03T17:54:16.245Z,1019.71
2018-10-03T17:59:11.864Z,1019.70
2018-10-03T18:04:07.679Z,1019.79
2018-10-03T18:09:03.444Z,1019.79
2018-10-03T18:14:00.170Z,1019.81
2018-10-03T18:18:55.803Z,1019.77
2018-10-03T18:23:52.653Z,1019.78
2018-10-03T18:28:48.109Z,1019.91
2018-10-03T18:33:44.680Z,1019.82
2018-10-03T18:38:41.529Z,1019.91
2018-10-03T18:43:37.137Z,1019.90
2018-10-03T18:48:33.307Z,1019.87
2018-10-03T18:53:29.271Z,1019.85
2018-10-03T18:58:25.226Z,1019.84
2018-10-03T19:03:21.262Z,1019.78
2018-10-03T19:08:17.084Z,1019.76
2018-10-03T19:13:12.939Z,1019.79
2018-10-03T19:18:08.659Z,1019.93
2018-10-03T19:23:04.954Z,1019.89
2018-10-03T19:28:01.765Z,1019.89
2018-10-03T19:32:58.421Z,1019.86
2018-10-03T19:37:54.072Z,1020.01
2018-10-03T19:42:49.860Z,1020.01
2018-10-03T19:47:46.391Z,1020.07
2018-10-03T19:52:42.007Z,1020.09
2018-10-03T19:57:37.707Z,1020.17
2018-10-03T20:02:33.555Z,1020.17
2018-10-03T20:07:30.730Z,1020.09
2018-10-03T20:12:26.596Z,1020.12
2018-10-03T20:17:22.343Z,1020.19
2018-10-03T20:22:18.507Z,1020.12
2018-10-03T20:27:14.759Z,1020.22
2018-10-03T20:32:10.417Z,1020.28
2018-10-03T20:37:07.287Z,1020.33
2018-10-03T20:42:03.789Z,1020.36
2018-10-03T20:46:59.216Z,1020.28
2018-10-03T20:51:56.229Z,1020.29
2018-10-03T20:56:52.127Z,1020.31
2018-10-03T21:01:47.873Z,1020.28
2018-10-03T21:06:44.936Z,1020.31
2018-10-03T21:11:41.358Z,1020.32
2018-10-03T21:16:38.410Z,1020.42
2018-10-03T21:21:34.789Z,1020.42
2018-10-03T21:26:30.144Z,1020.39
2018-10-03T21:31:26.022Z,1020.43
2018-10-03T21:36:21.863Z,1020.46
2018-10-03T21:41:17.624Z,1020.47
2018-10-03T21:46:13.527Z,1020.46
2018-10-03T21:51:09.346Z,1020.50
2018-10-03T21:56:05.968Z,1020.53
2018-10-03T22:01:01.508Z,1020.47
2018-10-03T22:05:58.435Z,1020.45
2018-10-03T22:10:55.104Z,1020.36
2018-10-03T22:15:50.979Z,1020.46
2018-10-03T22:20:47.678Z,1020.45
2018-10-03T22:25:43.288Z,1020.56
2018-10-03T22:30:39.062Z,1020.54
2018-10-03T22:35:35.085Z,1020.53
2018-10-03T22:40:31.802Z,1020.58
2018-10-03T22:45:27.555Z,1020.52
2018-10-03T22:50:23.433Z,1020.48
2018-10-03T22:55:19.286Z,1020.51
2018-10-03T23:00:15.872Z,1020.41
2018-10-03T23:05:11.564Z,1020.39
2018-10-03T23:10:07.614Z,1020.53
2018-10-03T23:15:03.612Z,1020.38
2018-10-03T23:19:59.792Z,1020.56
2018-10-03T23:24:55.570Z,1020.37
2018-10-03T23:29:51.393Z,1020.32
2018-10-03T23:34:47.791Z,1020.23
2018-10-03T23:39:43.482Z,1020.45
2018-10-03T23:44:40.228Z,1020.46
2018-10-03T23:49:36.623Z,1020.54
2018-10-03T23:54:33.095Z,1020.56
2018-10-03T23:59:29.528Z,1020.63
